Time;durP1;ratioP1;P1;durP2;ratioP2;P2;SDS_P1;SDS_P2;PMS_P1;PMS_P2;Temp;Humidity;BMP_temperature;BMP_pressure;BME280_temperature;BME280_humidity;BME280_pressure;Samples;Min_cycle;Max_cycle;Signal;HPM_P1;HPM_P2
2023/11/14 00:01:29;;;;;;;0.30;0.20;;;12.50;99.90;;;;;;5084848;28;20263;-77
2023/11/14 00:03:55;;;;;;;0.77;0.77;;;12.50;99.90;;;;;;5084590;28;20231;-77
2023/11/14 00:06:21;;;;;;;1.13;0.97;;;12.50;99.90;;;;;;5083981;28;20164;-77
2023/11/14 00:08:47;;;;;;;0.50;0.50;;;12.50;99.90;;;;;;5084726;28;20435;-77
2023/11/14 00:11:13;;;;;;;1.13;1.13;;;12.50;99.90;;;;;;5083132;28;20905;-77
2023/11/14 00:13:39;;;;;;;7.37;7.07;;;12.50;99.90;;;;;;5085173;28;20212;-77
2023/11/14 00:16:05;;;;;;;1.80;1.17;;;12.50;99.90;;;;;;5082917;28;20588;-77
2023/11/14 00:18:30;;;;;;;0.40;0.40;;;12.50;99.90;;;;;;5085171;28;20200;-77
2023/11/14 00:20:57;;;;;;;0.30;0.20;;;12.50;99.90;;;;;;5085663;28;20910;-77
2023/11/14 00:23:23;;;;;;;10.57;10.03;;;12.50;99.90;;;;;;5087248;28;20254;-77
2023/11/14 00:25:49;;;;;;;0.30;0.30;;;12.50;99.90;;;;;;5088951;28;20412;-77
2023/11/14 00:28:15;;;;;;;0.40;0.30;;;12.60;99.90;;;;;;5088484;28;20436;-77
2023/11/14 00:30:41;;;;;;;0.40;0.37;;;12.60;99.90;;;;;;5089157;28;20252;-77
2023/11/14 00:33:06;;;;;;;0.40;0.20;;;12.70;99.90;;;;;;5088362;28;20200;-77
2023/11/14 00:35:32;;;;;;;0.73;0.73;;;12.70;99.90;;;;;;5089055;28;20332;-77
2023/11/14 00:37:58;;;;;;;0.50;0.50;;;12.70;99.90;;;;;;5088434;28;20359;-77
2023/11/14 00:40:24;;;;;;;1.50;1.50;;;12.80;99.90;;;;;;5087519;28;20324;-77
2023/11/14 00:42:49;;;;;;;0.30;0.20;;;12.80;99.90;;;;;;5088299;28;20417;-79
2023/11/14 00:45:15;;;;;;;1.43;1.33;;;12.80;99.90;;;;;;5087377;28;20191;-77
2023/11/14 00:47:42;;;;;;;0.30;0.20;;;12.80;99.90;;;;;;5088472;28;20172;-77
2023/11/14 00:50:09;;;;;;;1.07;1.07;;;12.80;99.90;;;;;;5087022;28;20421;-77
2023/11/14 00:52:35;;;;;;;0.30;0.30;;;12.80;99.90;;;;;;5086838;28;20425;-77
2023/11/14 00:55:01;;;;;;;0.30;0.20;;;12.90;99.90;;;;;;5088155;28;20485;-77
2023/11/14 00:57:26;;;;;;;0.37;0.30;;;12.80;99.90;;;;;;5088209;28;20169;-77
2023/11/14 00:59:52;;;;;;;0.40;0.40;;;12.80;99.90;;;;;;5088310;28;20634;-77
2023/11/14 01:02:18;;;;;;;0.73;0.73;;;12.90;99.90;;;;;;5086745;28;20205;-77
2023/11/14 01:04:43;;;;;;;0.30;0.20;;;12.90;99.90;;;;;;5086582;28;20224;-77
2023/11/14 01:07:10;;;;;;;0.30;0.20;;;12.90;99.90;;;;;;5086243;28;20176;-77
2023/11/14 01:09:36;;;;;;;2.10;1.70;;;12.90;99.90;;;;;;5085701;28;20205;-77
2023/11/14 01:12:05;;;;;;;0.87;0.87;;;12.90;99.90;;;;;;5087681;28;20428;-77
2023/11/14 01:14:30;;;;;;;0.30;0.30;;;12.90;99.90;;;;;;5086697;28;20437;-77
2023/11/14 01:16:56;;;;;;;0.30;0.20;;;12.90;99.90;;;;;;5085915;28;20544;-77
2023/11/14 01:19:22;;;;;;;5.73;2.10;;;12.90;99.90;;;;;;5087038;28;20349;-77
2023/11/14 01:21:48;;;;;;;0.40;0.40;;;12.80;99.90;;;;;;5087417;28;20312;-77
2023/11/14 01:24:14;;;;;;;0.30;0.20;;;12.70;99.90;;;;;;5086345;28;20216;-77
2023/11/14 01:26:40;;;;;;;0.77;0.77;;;12.70;99.90;;;;;;5087798;28;20401;-77
2023/11/14 01:29:06;;;;;;;0.30;0.20;;;12.70;99.90;;;;;;5086654;28;20223;-77
2023/11/14 01:31:31;;;;;;;1.13;1.13;;;12.70;99.90;;;;;;5086689;28;20409;-77
2023/11/14 01:33:58;;;;;;;5.23;2.27;;;12.70;99.90;;;;;;5086628;28;20707;-77
2023/11/14 01:36:24;;;;;;;3.80;3.60;;;12.70;99.90;;;;;;5086168;28;20527;-77
2023/11/14 01:38:50;;;;;;;1.10;1.10;;;12.70;99.90;;;;;;5087475;28;20960;-77
2023/11/14 01:41:17;;;;;;;1.13;1.13;;;12.70;99.90;;;;;;5087470;28;20393;-77
2023/11/14 01:43:46;;;;;;;0.30;0.30;;;12.70;99.90;;;;;;5085675;28;20865;-77
2023/11/14 01:46:16;;;;;;;0.30;0.20;;;12.70;99.90;;;;;;5085954;28;20971;-77
2023/11/14 01:48:47;;;;;;;0.40;0.33;;;12.60;99.90;;;;;;5087825;28;20439;-77
2023/11/14 01:51:13;;;;;;;1.43;1.43;;;12.60;99.90;;;;;;5085701;28;20486;-77
2023/11/14 01:53:39;;;;;;;1.90;1.80;;;12.60;99.90;;;;;;5087171;28;20424;-77
2023/11/14 01:56:08;;;;;;;0.50;0.50;;;12.70;99.90;;;;;;5085637;28;20413;-77
2023/11/14 01:58:37;;;;;;;0.50;0.50;;;12.70;99.90;;;;;;5085683;28;20969;-77
2023/11/14 02:01:03;;;;;;;0.60;0.60;;;12.70;99.90;;;;;;5086007;28;20428;-77
2023/11/14 02:03:29;;;;;;;0.73;0.73;;;12.70;99.90;;;;;;5087114;28;20473;-77
2023/11/14 02:05:55;;;;;;;0.40;0.37;;;12.60;99.90;;;;;;5085718;28;20409;-77
2023/11/14 02:08:21;;;;;;;0.30;0.20;;;12.60;99.90;;;;;;5085366;28;20456;-77
2023/11/14 02:10:47;;;;;;;10.00;3.03;;;12.60;99.90;;;;;;5086145;28;20459;-77
2023/11/14 02:13:13;;;;;;;0.30;0.30;;;12.60;99.90;;;;;;5084952;28;20783;-77
2023/11/14 02:15:39;;;;;;;0.30;0.20;;;12.70;99.90;;;;;;5085511;28;20822;-77
2023/11/14 02:18:05;;;;;;;0.30;0.20;;;12.70;99.90;;;;;;5086677;28;20445;-77
2023/11/14 02:20:30;;;;;;;0.30;0.20;;;12.70;99.90;;;;;;5087315;28;20172;-77
2023/11/14 02:22:58;;;;;;;0.30;0.20;;;12.70;99.90;;;;;;5086056;28;20416;-77
2023/11/14 02:25:24;;;;;;;0.30;0.30;;;12.70;99.90;;;;;;5085451;28;20184;-77
2023/11/14 02:27:50;;;;;;;0.50;0.40;;;12.80;99.90;;;;;;5084890;28;20810;-77
2023/11/14 02:30:15;;;;;;;5.77;5.40;;;12.70;99.90;;;;;;5086581;28;20431;-77
2023/11/14 02:32:41;;;;;;;0.90;0.83;;;12.70;99.90;;;;;;5085868;28;20172;-77
2023/11/14 02:35:07;;;;;;;4.53;4.33;;;12.70;99.90;;;;;;5086650;28;20180;-77
2023/11/14 02:37:33;;;;;;;0.30;0.20;;;12.70;99.90;;;;;;5085102;28;20664;-77
2023/11/14 02:40:00;;;;;;;0.30;0.30;;;12.70;99.90;;;;;;5086757;28;20443;-77
2023/11/14 02:42:26;;;;;;;0.40;0.30;;;12.60;99.90;;;;;;5084831;28;20429;-77
2023/11/14 02:44:51;;;;;;;0.30;0.30;;;12.60;99.90;;;;;;5085407;28;20517;-77
2023/11/14 02:47:18;;;;;;;0.40;0.40;;;12.60;99.90;;;;;;5086094;28;20536;-77
2023/11/14 02:50:09;;;;;;;0.30;0.30;;;12.60;99.90;;;;;;5084898;28;20311;-77
2023/11/14 02:52:37;;;;;;;0.40;0.40;;;12.60;99.90;;;;;;5085696;28;20432;-77
2023/11/14 02:55:03;;;;;;;0.40;0.30;;;12.50;99.90;;;;;;5084456;28;20838;-77
2023/11/14 02:57:29;;;;;;;0.30;0.20;;;12.50;99.90;;;;;;5086070;28;20416;-77
2023/11/14 02:59:55;;;;;;;0.30;0.20;;;12.50;99.90;;;;;;5086402;28;20889;-77
2023/11/14 03:02:20;;;;;;;0.30;0.20;;;12.40;99.90;;;;;;5085705;28;20188;-77
2023/11/14 03:04:46;;;;;;;0.30;0.20;;;12.40;99.90;;;;;;5085877;28;20615;-77
2023/11/14 03:07:13;;;;;;;1.60;1.53;;;12.40;99.90;;;;;;5085176;28;20547;-77
2023/11/14 03:09:39;;;;;;;1.83;1.17;;;12.40;99.90;;;;;;5086028;28;20433;-77
2023/11/14 03:12:06;;;;;;;2.30;2.20;;;12.40;99.90;;;;;;5085411;28;20411;-77
2023/11/14 03:14:31;;;;;;;0.30;0.20;;;12.40;99.90;;;;;;5083604;28;20208;-77
2023/11/14 03:16:57;;;;;;;0.97;0.97;;;12.30;99.90;;;;;;5083733;28;20465;-77
2023/11/14 03:19:23;;;;;;;3.27;3.07;;;12.40;99.90;;;;;;5085826;28;20196;-77
2023/11/14 03:21:48;;;;;;;0.30;0.20;;;12.40;99.90;;;;;;5083728;28;20177;-78
2023/11/14 03:24:14;;;;;;;0.30;0.20;;;12.40;99.90;;;;;;5085536;28;20477;-78
2023/11/14 03:26:40;;;;;;;0.30;0.20;;;12.40;99.90;;;;;;5085400;28;20741;-78
2023/11/14 03:29:05;;;;;;;0.30;0.30;;;12.50;99.90;;;;;;5084078;28;20538;-78
2023/11/14 03:31:31;;;;;;;0.30;0.20;;;12.50;99.90;;;;;;5085381;28;20180;-78
2023/11/14 03:33:57;;;;;;;0.30;0.20;;;12.50;99.90;;;;;;5085055;28;20498;-78
2023/11/14 03:36:23;;;;;;;0.77;0.77;;;12.60;99.90;;;;;;5085239;28;20560;-79
2023/11/14 03:38:48;;;;;;;0.93;0.77;;;12.60;99.90;;;;;;5085535;28;20709;-78
2023/11/14 03:41:14;;;;;;;6.70;6.20;;;12.60;99.90;;;;;;5085188;28;20504;-78
2023/11/14 03:43:40;;;;;;;0.40;0.30;;;12.60;99.90;;;;;;5083263;28;20219;-78
2023/11/14 03:46:06;;;;;;;0.30;0.20;;;12.50;99.90;;;;;;5083661;28;20760;-78
2023/11/14 03:48:32;;;;;;;5.13;4.63;;;12.50;99.90;;;;;;5085556;28;20294;-78
2023/11/14 03:50:58;;;;;;;0.30;0.20;;;12.60;99.90;;;;;;5083872;28;20516;-77
2023/11/14 03:53:24;;;;;;;0.47;0.47;;;12.60;99.90;;;;;;5083474;28;20643;-77
2023/11/14 03:55:49;;;;;;;0.30;0.20;;;12.60;99.90;;;;;;5084970;28;20482;-76
2023/11/14 03:58:17;;;;;;;0.90;0.87;;;12.60;99.90;;;;;;5083570;28;20198;-77
2023/11/14 04:00:42;;;;;;;0.83;0.83;;;12.60;99.90;;;;;;5083542;28;20219;-77
2023/11/14 04:03:08;;;;;;;0.30;0.30;;;12.60;99.90;;;;;;5083282;28;20460;-77
2023/11/14 04:05:34;;;;;;;3.60;2.33;;;12.60;99.90;;;;;;5083915;28;20176;-77
2023/11/14 04:08:00;;;;;;;1.43;1.40;;;12.50;99.90;;;;;;5083417;28;20543;-77
2023/11/14 04:10:27;;;;;;;0.30;0.30;;;12.40;99.90;;;;;;5083998;28;20421;-77
2023/11/14 04:12:54;;;;;;;0.30;0.20;;;12.40;99.90;;;;;;5082380;28;20542;-77
2023/11/14 04:15:20;;;;;;;0.30;0.30;;;12.40;99.90;;;;;;5083454;28;20876;-77
2023/11/14 04:17:46;;;;;;;1.37;1.17;;;12.40;99.90;;;;;;5083139;28;20577;-77
2023/11/14 04:20:11;;;;;;;1.77;1.70;;;12.40;99.90;;;;;;5084792;28;20492;-77
2023/11/14 04:22:37;;;;;;;0.30;0.20;;;12.40;99.90;;;;;;5084496;28;20666;-77
2023/11/14 04:25:03;;;;;;;0.30;0.20;;;12.40;99.90;;;;;;5084635;28;20407;-77
2023/11/14 04:27:29;;;;;;;1.37;1.27;;;12.40;99.90;;;;;;5083108;28;20452;-77
2023/11/14 04:29:55;;;;;;;0.30;0.20;;;12.40;99.90;;;;;;5085156;28;20483;-77
2023/11/14 04:32:20;;;;;;;0.40;0.40;;;12.50;99.90;;;;;;5084251;28;20343;-77
2023/11/14 04:34:46;;;;;;;0.40;0.30;;;12.50;99.90;;;;;;5082915;28;20230;-77
2023/11/14 04:37:12;;;;;;;0.47;0.47;;;12.50;99.90;;;;;;5083803;28;20309;-77
2023/11/14 04:39:38;;;;;;;0.30;0.20;;;12.60;99.90;;;;;;5084261;28;20431;-78
2023/11/14 04:42:07;;;;;;;0.60;0.57;;;12.60;99.90;;;;;;5082529;28;20520;-77
2023/11/14 04:44:33;;;;;;;1.70;1.70;;;12.70;99.90;;;;;;5082848;28;20461;-77
2023/11/14 04:46:59;;;;;;;0.30;0.30;;;12.70;99.90;;;;;;5083754;28;20436;-77
2023/11/14 04:49:25;;;;;;;0.30;0.20;;;12.70;99.90;;;;;;5084410;28;20517;-77
2023/11/14 04:51:51;;;;;;;0.80;0.80;;;12.80;99.90;;;;;;5082703;28;20561;-77
2023/11/14 04:54:16;;;;;;;0.30;0.20;;;12.80;99.90;;;;;;5084042;28;20442;-76
2023/11/14 04:56:42;;;;;;;0.30;0.20;;;12.80;99.90;;;;;;5083970;28;20177;-77
2023/11/14 04:59:08;;;;;;;0.30;0.20;;;12.90;99.90;;;;;;5083149;28;20452;-77
2023/11/14 05:01:34;;;;;;;0.30;0.20;;;12.90;99.90;;;;;;5082794;28;20317;-77
2023/11/14 05:03:59;;;;;;;0.30;0.20;;;12.90;99.90;;;;;;5082960;28;20643;-77
2023/11/14 05:06:25;;;;;;;0.30;0.20;;;12.90;99.90;;;;;;5082950;28;20169;-77
2023/11/14 05:08:51;;;;;;;0.73;0.73;;;13.00;99.90;;;;;;5086534;28;20211;-77
2023/11/14 05:11:17;;;;;;;0.30;0.20;;;13.00;99.90;;;;;;5088076;28;20176;-77
2023/11/14 05:13:43;;;;;;;0.30;0.20;;;13.00;99.90;;;;;;5087688;28;20196;-76
2023/11/14 05:16:10;;;;;;;0.30;0.20;;;13.00;99.90;;;;;;5087016;28;20836;-77
2023/11/14 05:18:37;;;;;;;1.67;1.58;;;13.00;99.90;;;;;;5085819;28;20436;-77
2023/11/14 05:21:03;;;;;;;0.80;0.80;;;13.00;99.90;;;;;;5086075;28;20601;-77
2023/11/14 05:23:29;;;;;;;0.30;0.20;;;13.00;99.90;;;;;;5086131;28;20484;-77
2023/11/14 05:25:55;;;;;;;0.40;0.40;;;13.00;99.90;;;;;;5086102;28;20776;-77
2023/11/14 05:28:21;;;;;;;0.30;0.20;;;13.00;99.90;;;;;;5101995;28;21127;-78
2023/11/14 05:30:46;;;;;;;2.60;2.40;;;13.00;99.90;;;;;;5106711;28;20179;-78
2023/11/14 05:33:12;;;;;;;0.30;0.20;;;13.00;99.90;;;;;;5105350;28;20982;-77
2023/11/14 05:35:39;;;;;;;0.80;0.80;;;13.00;99.90;;;;;;5105872;28;20186;-77
2023/11/14 05:38:04;;;;;;;0.67;0.67;;;13.00;99.90;;;;;;5123075;27;20825;-77
2023/11/14 05:40:31;;;;;;;0.60;0.60;;;13.00;99.90;;;;;;5107896;28;20428;-77
2023/11/14 05:42:56;;;;;;;0.30;0.20;;;13.00;99.90;;;;;;5107153;28;20514;-77
2023/11/14 05:45:22;;;;;;;0.30;0.20;;;13.00;99.90;;;;;;5123079;27;20426;-77
2023/11/14 05:47:49;;;;;;;0.30;0.30;;;13.00;99.90;;;;;;5107602;28;20592;-77
2023/11/14 05:50:15;;;;;;;0.30;0.30;;;13.00;99.90;;;;;;5106786;28;20369;-77
2023/11/14 05:52:40;;;;;;;0.30;0.20;;;13.00;99.90;;;;;;5106112;28;20585;-77
2023/11/14 05:55:07;;;;;;;0.30;0.20;;;13.10;99.90;;;;;;5106768;28;20453;-77
2023/11/14 05:57:32;;;;;;;0.30;0.27;;;13.10;99.90;;;;;;5107241;27;20745;-77
2023/11/14 05:59:58;;;;;;;0.30;0.20;;;13.10;99.90;;;;;;5123031;27;20416;-77
2023/11/14 06:02:24;;;;;;;0.33;0.20;;;13.20;99.90;;;;;;5123213;27;20586;-77
2023/11/14 06:04:49;;;;;;;0.47;0.47;;;13.20;99.90;;;;;;5122713;27;20211;-77
2023/11/14 06:07:15;;;;;;;0.30;0.20;;;13.20;99.90;;;;;;5106083;28;20424;-77
2023/11/14 06:09:41;;;;;;;0.30;0.20;;;13.20;99.90;;;;;;5106939;28;20207;-77
2023/11/14 06:12:07;;;;;;;0.47;0.47;;;13.20;99.90;;;;;;5122388;27;20175;-77
2023/11/14 06:14:32;;;;;;;0.40;0.40;;;13.20;99.90;;;;;;5112495;27;20689;-76
2023/11/14 06:16:58;;;;;;;0.40;0.30;;;13.20;99.90;;;;;;5086997;28;20192;-77
2023/11/14 06:19:24;;;;;;;0.30;0.20;;;13.20;99.90;;;;;;5083438;28;20192;-77
2023/11/14 06:21:50;;;;;;;1.40;1.40;;;13.20;99.90;;;;;;5083489;28;20184;-77
2023/11/14 06:24:16;;;;;;;0.30;0.30;;;13.20;99.90;;;;;;5101490;28;20467;-77
2023/11/14 06:26:42;;;;;;;2.70;2.60;;;13.20;99.90;;;;;;5103710;28;20172;-77
2023/11/14 06:29:07;;;;;;;22.77;7.30;;;13.20;99.90;;;;;;5105602;28;20523;-77
2023/11/14 06:31:33;;;;;;;2.07;1.97;;;13.20;99.90;;;;;;5103910;28;20624;-77
2023/11/14 06:33:59;;;;;;;0.30;0.27;;;13.10;99.90;;;;;;5116628;27;20465;-77
2023/11/14 06:36:24;;;;;;;0.30;0.30;;;13.10;99.90;;;;;;5099526;28;20655;-77
2023/11/14 06:38:50;;;;;;;0.30;0.20;;;13.20;99.90;;;;;;5105302;27;20293;-77
2023/11/14 06:41:16;;;;;;;0.30;0.20;;;13.20;99.90;;;;;;5096162;28;20672;-77
2023/11/14 06:43:42;;;;;;;0.97;0.90;;;13.20;99.90;;;;;;5099295;28;20318;-77
2023/11/14 06:46:08;;;;;;;1.30;0.87;;;13.20;99.90;;;;;;5090264;28;20216;-77
2023/11/14 06:48:34;;;;;;;0.30;0.30;;;13.20;99.90;;;;;;5088956;28;20242;-77
2023/11/14 06:51:00;;;;;;;0.53;0.50;;;13.20;99.90;;;;;;5089578;28;20423;-77
2023/11/14 06:53:25;;;;;;;4.30;4.10;;;13.20;99.90;;;;;;5094018;28;20661;-77
2023/11/14 06:55:51;;;;;;;0.30;0.30;;;13.20;99.90;;;;;;5092115;28;20417;-76
2023/11/14 06:58:17;;;;;;;2.20;2.10;;;13.20;99.90;;;;;;5091616;28;20196;-77
2023/11/14 07:00:43;;;;;;;0.40;0.40;;;13.20;99.90;;;;;;5089833;28;20172;-77
2023/11/14 07:03:08;;;;;;;0.40;0.30;;;13.20;99.90;;;;;;5089664;28;20191;-77
2023/11/14 07:05:35;;;;;;;0.67;0.67;;;13.20;99.90;;;;;;5097323;28;20194;-78
2023/11/14 07:08:01;;;;;;;0.50;0.50;;;13.20;99.90;;;;;;5099756;28;20585;-77
2023/11/14 07:10:30;;;;;;;0.30;0.20;;;13.30;99.90;;;;;;5099745;28;20415;-77
2023/11/14 07:12:56;;;;;;;0.30;0.20;;;13.30;99.90;;;;;;5100204;28;20435;-78
2023/11/14 07:15:23;;;;;;;0.37;0.37;;;13.30;99.90;;;;;;5101958;28;20753;-78
2023/11/14 07:17:49;;;;;;;0.30;0.30;;;13.40;99.90;;;;;;5098553;28;20491;-77
2023/11/14 07:20:20;;;;;;;0.40;0.30;;;13.30;99.90;;;;;;5098924;28;20408;-80
2023/11/14 07:22:47;;;;;;;0.30;0.20;;;13.40;99.90;;;;;;5099543;28;20785;-75
2023/11/14 07:25:13;;;;;;;0.30;0.20;;;13.40;99.90;;;;;;5102699;28;20455;-78
2023/11/14 07:27:40;;;;;;;2.40;2.20;;;13.40;99.90;;;;;;5100009;28;20435;-79
2023/11/14 07:30:08;;;;;;;5.70;5.40;;;13.50;99.90;;;;;;5098553;28;21038;-78
2023/11/14 07:32:34;;;;;;;3.40;3.10;;;13.60;99.90;;;;;;5097660;27;20433;-78
2023/11/14 07:34:59;;;;;;;0.30;0.20;;;13.60;99.90;;;;;;5102618;28;20419;-77
2023/11/14 07:37:25;;;;;;;3.97;0.97;;;13.70;99.90;;;;;;5103038;28;20211;-78
2023/11/14 07:39:51;;;;;;;5.10;2.87;;;13.70;99.90;;;;;;5098868;28;20199;-79
2023/11/14 07:42:16;;;;;;;0.73;0.73;;;13.80;99.90;;;;;;5099167;27;20183;-79
2023/11/14 07:44:42;;;;;;;0.30;0.20;;;13.90;99.90;;;;;;5099058;28;20303;-78
2023/11/14 07:47:07;;;;;;;0.30;0.20;;;14.00;99.90;;;;;;5095823;28;20673;-78
2023/11/14 07:49:33;;;;;;;0.40;0.40;;;14.00;99.90;;;;;;5115577;27;20601;-80
2023/11/14 07:52:00;;;;;;;0.70;0.70;;;14.20;99.90;;;;;;5120197;27;20208;-77
2023/11/14 07:54:25;;;;;;;0.30;0.20;;;14.30;99.90;;;;;;5092601;28;20444;-78
2023/11/14 07:56:51;;;;;;;0.97;0.97;;;14.40;99.90;;;;;;5085012;28;20488;-77
2023/11/14 07:59:21;;;;;;;3.67;3.20;;;14.40;99.90;;;;;;5082463;28;20811;-78
2023/11/14 08:01:47;;;;;;;1.17;1.17;;;14.50;99.90;;;;;;5084352;28;20179;-79
2023/11/14 08:04:15;;;;;;;1.00;0.90;;;14.50;99.90;;;;;;5082713;28;20533;-80
2023/11/14 08:06:40;;;;;;;3.03;2.93;;;14.70;99.90;;;;;;5087385;28;20397;-78
2023/11/14 08:09:06;;;;;;;0.40;0.40;;;14.90;99.90;;;;;;5089158;28;20418;-81
2023/11/14 08:11:31;;;;;;;1.03;1.03;;;15.20;99.90;;;;;;5089980;28;20551;-77
2023/11/14 08:13:57;;;;;;;1.30;1.30;;;15.40;99.90;;;;;;5089663;28;20230;-76
2023/11/14 08:16:23;;;;;;;0.77;0.77;;;15.50;99.90;;;;;;5089894;28;20243;-80
2023/11/14 08:18:50;;;;;;;1.17;1.17;;;15.60;99.90;;;;;;5083573;28;20469;-77
2023/11/14 08:21:15;;;;;;;0.73;0.73;;;15.70;99.90;;;;;;5085939;28;20416;-81
2023/11/14 08:23:42;;;;;;;0.80;0.57;;;15.90;99.90;;;;;;5080337;28;20480;-82
2023/11/14 08:26:09;;;;;;;0.40;0.40;;;16.00;99.90;;;;;;5076028;28;20806;-79
2023/11/14 08:28:34;;;;;;;0.30;0.20;;;16.00;99.90;;;;;;5092152;28;20838;-77
2023/11/14 08:31:00;;;;;;;1.07;1.07;;;16.00;99.90;;;;;;5099121;28;20747;-77
2023/11/14 08:33:26;;;;;;;0.60;0.57;;;16.00;99.90;;;;;;5100070;28;20259;-78
2023/11/14 08:35:52;;;;;;;1.00;1.00;;;16.00;99.90;;;;;;5096249;28;20633;-78
2023/11/14 08:38:18;;;;;;;0.57;0.57;;;15.90;99.90;;;;;;5091310;28;20391;-79
2023/11/14 08:40:43;;;;;;;0.67;0.67;;;15.80;99.90;;;;;;5083065;28;20397;-79
2023/11/14 08:43:09;;;;;;;0.30;0.20;;;15.70;99.90;;;;;;5093775;28;20204;-77
2023/11/14 08:45:35;;;;;;;0.30;0.30;;;15.70;99.90;;;;;;5104173;28;20205;-79
2023/11/14 08:48:03;;;;;;;0.40;0.30;;;15.70;99.90;;;;;;5107317;27;20746;-81
2023/11/14 08:50:29;;;;;;;1.23;1.23;;;15.80;99.90;;;;;;5102103;28;20780;-78
2023/11/14 08:52:55;;;;;;;0.30;0.30;;;15.80;99.90;;;;;;5099515;28;20439;-81
2023/11/14 08:55:21;;;;;;;0.30;0.20;;;15.90;99.90;;;;;;5094389;28;20420;-77
2023/11/14 08:57:47;;;;;;;0.30;0.20;;;16.00;99.90;;;;;;5101085;28;20203;-80
2023/11/14 09:00:13;;;;;;;1.17;1.17;;;16.00;99.90;;;;;;5109396;27;20176;-77
2023/11/14 09:02:40;;;;;;;0.63;0.63;;;16.00;99.90;;;;;;5104070;28;20250;-79
2023/11/14 09:05:09;;;;;;;0.30;0.30;;;16.00;99.90;;;;;;5104247;28;20452;-79
2023/11/14 09:07:36;;;;;;;0.30;0.20;;;15.90;99.90;;;;;;5103960;28;20824;-79
2023/11/14 09:10:03;;;;;;;0.30;0.30;;;15.90;99.90;;;;;;5101247;27;20949;-76
2023/11/14 09:12:30;;;;;;;0.30;0.20;;;16.00;99.90;;;;;;5099641;28;20788;-77
2023/11/14 09:14:56;;;;;;;0.30;0.20;;;15.90;99.90;;;;;;5105827;27;21174;-79
2023/11/14 09:17:22;;;;;;;0.60;0.60;;;15.90;99.90;;;;;;5098675;28;20458;-79
2023/11/14 09:19:51;;;;;;;1.30;1.27;;;15.90;99.90;;;;;;5096025;28;20257;-79
2023/11/14 09:22:16;;;;;;;0.30;0.20;;;15.90;99.90;;;;;;5101678;27;20192;-77
2023/11/14 09:24:43;;;;;;;0.30;0.30;;;15.90;99.90;;;;;;5094167;28;20504;-80
2023/11/14 09:27:08;;;;;;;0.50;0.50;;;15.90;99.90;;;;;;5099839;28;20368;-77
2023/11/14 09:29:34;;;;;;;0.40;0.40;;;16.00;99.90;;;;;;5098821;27;20837;-80
2023/11/14 09:32:03;;;;;;;0.30;0.20;;;16.10;99.90;;;;;;5103411;27;20211;-80
2023/11/14 09:34:32;;;;;;;0.70;0.70;;;16.20;99.90;;;;;;5096312;28;20204;-78
2023/11/14 09:36:58;;;;;;;1.70;1.60;;;16.20;99.90;;;;;;5097885;28;20514;-78
2023/11/14 09:39:24;;;;;;;0.40;0.40;;;16.30;99.90;;;;;;5100846;28;20543;-79
2023/11/14 09:41:50;;;;;;;0.30;0.30;;;16.40;99.90;;;;;;5094242;28;20611;-79
2023/11/14 09:44:16;;;;;;;1.27;1.23;;;16.50;99.90;;;;;;5101856;28;20222;-78
2023/11/14 09:46:43;;;;;;;0.50;0.50;;;16.50;99.90;;;;;;5107767;27;20217;-80
2023/11/14 09:49:09;;;;;;;0.30;0.20;;;16.60;99.90;;;;;;5099584;28;20444;-81
2023/11/14 09:51:36;;;;;;;0.30;0.30;;;16.70;99.90;;;;;;5103692;28;20412;-80
2023/11/14 09:54:03;;;;;;;0.30;0.20;;;16.70;99.90;;;;;;5118098;27;20404;-80
2023/11/14 09:56:29;;;;;;;0.60;0.60;;;16.70;99.90;;;;;;5103073;28;20490;-77
2023/11/14 09:58:56;;;;;;;0.30;0.20;;;16.70;99.90;;;;;;5085097;28;20533;-79
2023/11/14 10:01:23;;;;;;;0.30;0.20;;;16.70;99.90;;;;;;5087251;28;20408;-80
2023/11/14 10:03:49;;;;;;;0.30;0.20;;;16.60;99.90;;;;;;5099916;28;20530;-79
2023/11/14 10:06:15;;;;;;;0.30;0.20;;;16.60;99.90;;;;;;5105058;28;20648;-77
2023/11/14 10:08:40;;;;;;;0.30;0.20;;;16.60;99.90;;;;;;5103791;28;20243;-78
2023/11/14 10:11:10;;;;;;;0.30;0.20;;;16.70;99.90;;;;;;5102003;28;20444;-78
2023/11/14 10:13:37;;;;;;;0.40;0.40;;;16.60;99.90;;;;;;5097982;28;20211;-80
2023/11/14 10:16:14;;;;;;;0.30;0.20;;;16.60;99.90;;;;;;5099936;28;20538;-77
2023/11/14 10:18:40;;;;;;;0.30;0.20;;;16.60;99.90;;;;;;5096213;28;20452;-78
2023/11/14 10:21:22;;;;;;;3.10;3.00;;;16.60;99.90;;;;;;5102136;28;20419;-79
2023/11/14 10:23:48;;;;;;;1.57;1.23;;;16.60;99.90;;;;;;5107810;27;20219;-79
2023/11/14 10:26:13;;;;;;;1.67;1.67;;;16.70;99.90;;;;;;5102378;28;20424;-78
2023/11/14 10:29:00;;;;;;;0.30;0.20;;;16.60;99.90;;;;;;5104144;28;20231;-79
2023/11/14 10:31:52;;;;;;;0.30;0.20;;;16.60;99.90;;;;;;5105898;28;20299;-78
2023/11/14 10:34:30;;;;;;;0.30;0.20;;;16.70;99.90;;;;;;5100737;28;21064;-78
2023/11/14 10:36:58;;;;;;;0.30;0.20;;;16.70;99.90;;;;;;5104835;28;21035;-79
2023/11/14 10:39:24;;;;;;;0.30;0.20;;;16.70;99.90;;;;;;5104174;28;20435;-79
2023/11/14 10:41:52;;;;;;;0.30;0.20;;;16.70;99.90;;;;;;5103572;28;20438;-80
2023/11/14 10:44:19;;;;;;;0.30;0.20;;;16.70;99.90;;;;;;5102642;28;20524;-79
2023/11/14 10:46:55;;;;;;;0.30;0.30;;;16.70;99.90;;;;;;5105093;28;20458;-77
2023/11/14 10:49:23;;;;;;;0.30;0.20;;;16.70;99.90;;;;;;5094501;28;20463;-78
2023/11/14 10:51:50;;;;;;;0.30;0.20;;;16.60;99.90;;;;;;5102582;28;20443;-79
2023/11/14 10:54:17;;;;;;;0.30;0.30;;;16.70;99.90;;;;;;5119846;27;20428;-78
2023/11/14 10:56:44;;;;;;;0.30;0.20;;;16.80;99.90;;;;;;5116666;27;20408;-77
2023/11/14 10:59:15;;;;;;;0.30;0.20;;;16.80;99.90;;;;;;5085730;28;20992;-79
2023/11/14 11:01:44;;;;;;;0.30;0.23;;;16.80;99.90;;;;;;5094995;28;20408;-79
2023/11/14 11:04:14;;;;;;;0.30;0.20;;;16.80;99.90;;;;;;5098231;28;20474;-79
2023/11/14 11:06:40;;;;;;;0.30;0.20;;;16.90;99.90;;;;;;5101350;27;20929;-79
2023/11/14 11:09:07;;;;;;;0.30;0.30;;;16.90;99.90;;;;;;5096852;28;20824;-77
2023/11/14 11:11:38;;;;;;;0.50;0.50;;;16.90;99.90;;;;;;5096025;28;20424;-77
2023/11/14 11:14:06;;;;;;;0.40;0.40;;;16.90;99.90;;;;;;5099480;28;20447;-77
2023/11/14 11:16:51;;;;;;;4.83;1.43;;;17.00;99.90;;;;;;5106305;27;20466;-77
2023/11/14 11:19:28;;;;;;;0.30;0.20;;;17.00;99.90;;;;;;5102114;28;20436;-77
2023/11/14 11:22:00;;;;;;;0.30;0.20;;;17.00;99.90;;;;;;5091414;28;20975;-79
2023/11/14 11:24:27;;;;;;;0.40;0.40;;;17.00;99.90;;;;;;5099740;28;20766;-79
2023/11/14 11:27:12;;;;;;;0.30;0.20;;;17.00;99.90;;;;;;5100471;28;20531;-79
2023/11/14 11:30:05;;;;;;;0.30;0.20;;;17.00;99.90;;;;;;5104005;28;20960;-80
2023/11/14 11:32:37;;;;;;;0.30;0.20;;;17.00;99.90;;;;;;5102027;27;20447;-78
2023/11/14 11:35:19;;;;;;;0.30;0.20;;;17.00;99.90;;;;;;5099500;28;20431;-80
2023/11/14 11:38:07;;;;;;;0.50;0.50;;;17.00;99.90;;;;;;5100500;28;20439;-80
2023/11/14 11:40:33;;;;;;;0.40;0.40;;;17.00;99.90;;;;;;5096600;28;20628;-80
2023/11/14 11:43:16;;;;;;;0.30;0.30;;;17.00;99.90;;;;;;5093435;28;20452;-78
2023/11/14 11:45:45;;;;;;;0.30;0.20;;;17.00;99.90;;;;;;5090976;28;20496;-78
2023/11/14 11:48:35;;;;;;;0.30;0.20;;;17.00;99.90;;;;;;5095207;28;20447;-80
2023/11/14 11:51:23;;;;;;;0.30;0.20;;;17.00;99.90;;;;;;5091754;28;20459;-78
2023/11/14 11:53:49;;;;;;;0.30;0.20;;;17.00;99.90;;;;;;5113307;27;20491;-80
2023/11/14 11:56:36;;;;;;;0.30;0.30;;;17.00;99.90;;;;;;5093595;28;20968;-81
2023/11/14 11:59:04;;;;;;;0.30;0.30;;;17.10;99.90;;;;;;5090830;28;20438;-78
2023/11/14 12:01:31;;;;;;;1.27;1.27;;;17.10;99.90;;;;;;5088616;28;20416;-81
2023/11/14 12:04:00;;;;;;;2.10;1.60;;;17.10;99.90;;;;;;5087881;28;21121;-77
2023/11/14 12:06:27;;;;;;;0.30;0.20;;;17.10;99.90;;;;;;5090671;28;20450;-77
2023/11/14 12:08:54;;;;;;;0.30;0.20;;;17.10;99.90;;;;;;5093287;28;21076;-80
2023/11/14 12:11:23;;;;;;;0.30;0.20;;;17.10;99.90;;;;;;5101928;28;20424;-81
2023/11/14 12:13:54;;;;;;;0.30;0.20;;;17.20;99.90;;;;;;5094896;28;21765;-78
2023/11/14 12:16:21;;;;;;;0.30;0.20;;;17.20;99.90;;;;;;5100064;27;20472;-78
2023/11/14 12:18:47;;;;;;;0.30;0.20;;;17.20;99.90;;;;;;5102141;28;20455;-77
2023/11/14 12:21:15;;;;;;;0.30;0.20;;;17.30;99.90;;;;;;5102902;28;20508;-77
2023/11/14 12:23:42;;;;;;;0.30;0.20;;;17.30;99.90;;;;;;5096847;28;20479;-77
2023/11/14 12:26:08;;;;;;;0.30;0.20;;;17.20;99.90;;;;;;5100436;28;20757;-77
2023/11/14 12:28:40;;;;;;;0.30;0.20;;;17.30;99.90;;;;;;5116246;27;20460;-77
2023/11/14 12:31:08;;;;;;;1.83;1.73;;;17.30;99.90;;;;;;5098121;28;20408;-77
2023/11/14 12:33:44;;;;;;;1.50;1.40;;;17.30;99.90;;;;;;5109469;27;20461;-79
2023/11/14 12:36:22;;;;;;;0.30;0.20;;;17.30;99.90;;;;;;5115981;27;20780;-79
2023/11/14 12:38:48;;;;;;;0.40;0.30;;;17.30;99.90;;;;;;5096499;28;20747;-77
2023/11/14 12:41:15;;;;;;;0.30;0.20;;;17.30;99.90;;;;;;5124688;27;20421;-79
2023/11/14 12:43:42;;;;;;;2.37;2.20;;;17.30;99.90;;;;;;5096981;28;20476;-77
2023/11/14 12:46:08;;;;;;;0.30;0.20;;;17.30;99.90;;;;;;5126646;27;20412;-77